sensor_id;sensor_type;location;lat;lon;timestamp;P1;durP1;ratioP1;P2;durP2;ratioP2
37407;SDS011;24866;50.248;8.252;2022-11-12T00:00:36;8.30;;;5.32;;
37407;SDS011;24866;50.248;8.252;2022-11-12T00:03:06;6.78;;;4.53;;
37407;SDS011;24866;50.248;8.252;2022-11-12T00:05:37;8.68;;;5.10;;
37407;SDS011;24866;50.248;8.252;2022-11-12T00:08:07;8.02;;;5.40;;
37407;SDS011;24866;50.248;8.252;2022-11-12T00:10:37;8.25;;;4.45;;
37407;SDS011;24866;50.248;8.252;2022-11-12T00:13:07;8.50;;;4.95;;
37407;SDS011;24866;50.248;8.252;2022-11-12T00:15:38;8.85;;;5.20;;
37407;SDS011;24866;50.248;8.252;2022-11-12T00:18:10;7.90;;;5.28;;
37407;SDS011;24866;50.248;8.252;2022-11-12T00:20:40;9.40;;;5.57;;
37407;SDS011;24866;50.248;8.252;2022-11-12T00:23:10;8.88;;;5.65;;
37407;SDS011;24866;50.248;8.252;2022-11-12T00:25:40;8.95;;;5.38;;
37407;SDS011;24866;50.248;8.252;2022-11-12T00:28:10;7.07;;;4.40;;
37407;SDS011;24866;50.248;8.252;2022-11-12T00:30:41;8.57;;;5.00;;
37407;SDS011;24866;50.248;8.252;2022-11-12T00:33:11;8.00;;;4.53;;
37407;SDS011;24866;50.248;8.252;2022-11-12T00:35:41;7.07;;;4.57;;
37407;SDS011;24866;50.248;8.252;2022-11-12T00:38:11;6.85;;;4.35;;
37407;SDS011;24866;50.248;8.252;2022-11-12T00:40:41;6.35;;;4.35;;
37407;SDS011;24866;50.248;8.252;2022-11-12T00:43:11;8.73;;;4.30;;
37407;SDS011;24866;50.248;8.252;2022-11-12T00:45:42;7.05;;;4.07;;
37407;SDS011;24866;50.248;8.252;2022-11-12T00:48:12;6.43;;;4.05;;
37407;SDS011;24866;50.248;8.252;2022-11-12T00:50:42;6.80;;;4.57;;
37407;SDS011;24866;50.248;8.252;2022-11-12T00:53:12;7.45;;;4.57;;
37407;SDS011;24866;50.248;8.252;2022-11-12T00:55:42;7.53;;;4.78;;
37407;SDS011;24866;50.248;8.252;2022-11-12T00:58:12;8.95;;;5.15;;
37407;SDS011;24866;50.248;8.252;2022-11-12T01:00:43;7.70;;;4.88;;
37407;SDS011;24866;50.248;8.252;2022-11-12T01:03:13;8.57;;;4.68;;
37407;SDS011;24866;50.248;8.252;2022-11-12T01:05:43;9.05;;;5.20;;
37407;SDS011;24866;50.248;8.252;2022-11-12T01:08:13;7.78;;;4.68;;
37407;SDS011;24866;50.248;8.252;2022-11-12T01:10:43;9.38;;;4.55;;
37407;SDS011;24866;50.248;8.252;2022-11-12T01:13:13;6.82;;;4.38;;
37407;SDS011;24866;50.248;8.252;2022-11-12T01:15:44;8.82;;;4.57;;
37407;SDS011;24866;50.248;8.252;2022-11-12T01:18:14;8.27;;;5.30;;
37407;SDS011;24866;50.248;8.252;2022-11-12T01:20:44;8.65;;;5.53;;
37407;SDS011;24866;50.248;8.252;2022-11-12T01:23:14;7.97;;;5.22;;
37407;SDS011;24866;50.248;8.252;2022-11-12T01:25:44;9.07;;;5.32;;
37407;SDS011;24866;50.248;8.252;2022-11-12T01:28:14;7.68;;;5.45;;
37407;SDS011;24866;50.248;8.252;2022-11-12T01:30:45;8.38;;;5.10;;
37407;SDS011;24866;50.248;8.252;2022-11-12T01:33:15;8.60;;;5.10;;
37407;SDS011;24866;50.248;8.252;2022-11-12T01:35:45;8.43;;;4.85;;
37407;SDS011;24866;50.248;8.252;2022-11-12T01:38:15;6.85;;;5.05;;
37407;SDS011;24866;50.248;8.252;2022-11-12T01:40:44;8.15;;;5.10;;
37407;SDS011;24866;50.248;8.252;2022-11-12T01:43:14;8.55;;;5.38;;
37407;SDS011;24866;50.248;8.252;2022-11-12T01:45:46;12.50;;;4.93;;
37407;SDS011;24866;50.248;8.252;2022-11-12T01:48:21;8.50;;;5.57;;
37407;SDS011;24866;50.248;8.252;2022-11-12T01:50:54;12.95;;;5.05;;
37407;SDS011;24866;50.248;8.252;2022-11-12T01:53:25;9.20;;;5.75;;
37407;SDS011;24866;50.248;8.252;2022-11-12T01:55:57;8.90;;;4.55;;
37407;SDS011;24866;50.248;8.252;2022-11-12T01:58:29;6.82;;;4.25;;
37407;SDS011;24866;50.248;8.252;2022-11-12T02:01:01;6.25;;;3.80;;
37407;SDS011;24866;50.248;8.252;2022-11-12T02:03:32;10.00;;;4.70;;
37407;SDS011;24866;50.248;8.252;2022-11-12T02:06:02;11.52;;;4.25;;
37407;SDS011;24866;50.248;8.252;2022-11-12T02:08:36;13.88;;;4.93;;
37407;SDS011;24866;50.248;8.252;2022-11-12T02:11:09;10.98;;;4.35;;
37407;SDS011;24866;50.248;8.252;2022-11-12T02:13:42;9.63;;;4.60;;
37407;SDS011;24866;50.248;8.252;2022-11-12T02:16:33;12.68;;;5.38;;
37407;SDS011;24866;50.248;8.252;2022-11-12T02:19:07;7.40;;;4.25;;
37407;SDS011;24866;50.248;8.252;2022-11-12T02:21:39;7.30;;;5.05;;
37407;SDS011;24866;50.248;8.252;2022-11-12T02:27:00;7.78;;;4.90;;
37407;SDS011;24866;50.248;8.252;2022-11-12T02:29:31;7.82;;;5.68;;
37407;SDS011;24866;50.248;8.252;2022-11-12T02:32:01;9.75;;;5.07;;
37407;SDS011;24866;50.248;8.252;2022-11-12T02:34:31;9.40;;;5.65;;
37407;SDS011;24866;50.248;8.252;2022-11-12T02:37:02;7.88;;;5.13;;
37407;SDS011;24866;50.248;8.252;2022-11-12T02:39:32;7.93;;;4.40;;
37407;SDS011;24866;50.248;8.252;2022-11-12T02:42:02;9.23;;;5.07;;
37407;SDS011;24866;50.248;8.252;2022-11-12T02:44:32;7.18;;;4.75;;
37407;SDS011;24866;50.248;8.252;2022-11-12T02:47:02;8.40;;;4.65;;
37407;SDS011;24866;50.248;8.252;2022-11-12T02:49:32;7.93;;;4.88;;
37407;SDS011;24866;50.248;8.252;2022-11-12T02:52:03;7.65;;;4.45;;
37407;SDS011;24866;50.248;8.252;2022-11-12T02:54:33;6.93;;;4.63;;
37407;SDS011;24866;50.248;8.252;2022-11-12T02:57:03;7.20;;;4.80;;
37407;SDS011;24866;50.248;8.252;2022-11-12T02:59:33;7.45;;;4.72;;
37407;SDS011;24866;50.248;8.252;2022-11-12T03:02:04;8.65;;;5.18;;
37407;SDS011;24866;50.248;8.252;2022-11-12T03:04:34;7.80;;;4.93;;
37407;SDS011;24866;50.248;8.252;2022-11-12T03:07:05;10.52;;;5.18;;
37407;SDS011;24866;50.248;8.252;2022-11-12T03:09:35;12.75;;;4.78;;
37407;SDS011;24866;50.248;8.252;2022-11-12T03:12:05;7.50;;;4.25;;
37407;SDS011;24866;50.248;8.252;2022-11-12T03:14:35;7.97;;;4.90;;
37407;SDS011;24866;50.248;8.252;2022-11-12T03:17:05;8.63;;;4.78;;
37407;SDS011;24866;50.248;8.252;2022-11-12T03:19:35;6.50;;;4.45;;
37407;SDS011;24866;50.248;8.252;2022-11-12T03:22:06;6.72;;;4.80;;
37407;SDS011;24866;50.248;8.252;2022-11-12T03:24:36;7.63;;;4.97;;
37407;SDS011;24866;50.248;8.252;2022-11-12T03:27:06;13.25;;;4.85;;
37407;SDS011;24866;50.248;8.252;2022-11-12T03:29:36;7.20;;;4.53;;
37407;SDS011;24866;50.248;8.252;2022-11-12T03:32:05;8.52;;;4.18;;
37407;SDS011;24866;50.248;8.252;2022-11-12T03:34:35;7.20;;;3.80;;
37407;SDS011;24866;50.248;8.252;2022-11-12T03:37:07;7.70;;;4.20;;
37407;SDS011;24866;50.248;8.252;2022-11-12T03:39:37;6.73;;;4.20;;
37407;SDS011;24866;50.248;8.252;2022-11-12T03:42:07;8.32;;;4.32;;
37407;SDS011;24866;50.248;8.252;2022-11-12T03:44:37;5.75;;;3.63;;
37407;SDS011;24866;50.248;8.252;2022-11-12T03:47:07;6.55;;;3.90;;
37407;SDS011;24866;50.248;8.252;2022-11-12T03:49:37;9.98;;;3.72;;
37407;SDS011;24866;50.248;8.252;2022-11-12T03:52:08;7.03;;;3.22;;
37407;SDS011;24866;50.248;8.252;2022-11-12T03:54:38;12.52;;;4.00;;
37407;SDS011;24866;50.248;8.252;2022-11-12T03:57:07;5.68;;;3.67;;
37407;SDS011;24866;50.248;8.252;2022-11-12T03:59:37;5.13;;;3.50;;
37407;SDS011;24866;50.248;8.252;2022-11-12T04:02:07;5.60;;;3.72;;
37407;SDS011;24866;50.248;8.252;2022-11-12T04:04:41;5.85;;;3.38;;
37407;SDS011;24866;50.248;8.252;2022-11-12T04:07:35;27.85;;;4.40;;
37407;SDS011;24866;50.248;8.252;2022-11-12T04:10:22;8.00;;;3.85;;
37407;SDS011;24866;50.248;8.252;2022-11-12T04:12:52;5.35;;;3.50;;
37407;SDS011;24866;50.248;8.252;2022-11-12T04:15:39;7.90;;;3.50;;
37407;SDS011;24866;50.248;8.252;2022-11-12T04:18:09;11.23;;;4.07;;
37407;SDS011;24866;50.248;8.252;2022-11-12T04:20:57;7.40;;;3.55;;
37407;SDS011;24866;50.248;8.252;2022-11-12T04:23:45;4.80;;;3.13;;
37407;SDS011;24866;50.248;8.252;2022-11-12T04:26:15;5.03;;;3.10;;
37407;SDS011;24866;50.248;8.252;2022-11-12T04:28:53;7.57;;;3.72;;
37407;SDS011;24866;50.248;8.252;2022-11-12T04:31:40;5.57;;;2.60;;
37407;SDS011;24866;50.248;8.252;2022-11-12T04:34:10;13.90;;;4.00;;
37407;SDS011;24866;50.248;8.252;2022-11-12T04:36:58;6.15;;;4.47;;
37407;SDS011;24866;50.248;8.252;2022-11-12T04:39:29;6.13;;;4.00;;
37407;SDS011;24866;50.248;8.252;2022-11-12T04:41:59;8.13;;;4.40;;
37407;SDS011;24866;50.248;8.252;2022-11-12T04:44:47;6.68;;;4.25;;
37407;SDS011;24866;50.248;8.252;2022-11-12T04:47:33;5.88;;;4.20;;
37407;SDS011;24866;50.248;8.252;2022-11-12T04:50:05;6.68;;;4.07;;
37407;SDS011;24866;50.248;8.252;2022-11-12T04:52:40;6.55;;;3.80;;
37407;SDS011;24866;50.248;8.252;2022-11-12T04:55:12;6.20;;;4.25;;
37407;SDS011;24866;50.248;8.252;2022-11-12T04:57:41;8.32;;;4.30;;
37407;SDS011;24866;50.248;8.252;2022-11-12T05:00:12;7.25;;;4.50;;
37407;SDS011;24866;50.248;8.252;2022-11-12T05:02:42;7.13;;;4.15;;
37407;SDS011;24866;50.248;8.252;2022-11-12T05:05:12;7.40;;;4.63;;
37407;SDS011;24866;50.248;8.252;2022-11-12T05:07:42;7.75;;;4.55;;
37407;SDS011;24866;50.248;8.252;2022-11-12T05:10:13;8.15;;;4.63;;
37407;SDS011;24866;50.248;8.252;2022-11-12T05:12:43;10.20;;;4.75;;
37407;SDS011;24866;50.248;8.252;2022-11-12T05:15:13;8.02;;;4.40;;
37407;SDS011;24866;50.248;8.252;2022-11-12T05:17:43;9.13;;;4.82;;
37407;SDS011;24866;50.248;8.252;2022-11-12T05:20:14;7.78;;;5.00;;
37407;SDS011;24866;50.248;8.252;2022-11-12T05:22:44;7.80;;;4.47;;
37407;SDS011;24866;50.248;8.252;2022-11-12T05:25:15;5.80;;;4.07;;
37407;SDS011;24866;50.248;8.252;2022-11-12T05:27:45;6.57;;;4.30;;
37407;SDS011;24866;50.248;8.252;2022-11-12T05:30:15;12.35;;;4.30;;
37407;SDS011;24866;50.248;8.252;2022-11-12T05:32:45;6.05;;;3.90;;
37407;SDS011;24866;50.248;8.252;2022-11-12T05:35:15;6.72;;;4.13;;
37407;SDS011;24866;50.248;8.252;2022-11-12T05:37:45;6.88;;;4.05;;
37407;SDS011;24866;50.248;8.252;2022-11-12T05:40:16;6.90;;;3.97;;
37407;SDS011;24866;50.248;8.252;2022-11-12T05:42:46;7.47;;;4.35;;
37407;SDS011;24866;50.248;8.252;2022-11-12T05:45:16;10.63;;;4.75;;
37407;SDS011;24866;50.248;8.252;2022-11-12T05:47:46;7.47;;;3.85;;
37407;SDS011;24866;50.248;8.252;2022-11-12T05:50:16;6.28;;;4.18;;
37407;SDS011;24866;50.248;8.252;2022-11-12T05:52:46;5.95;;;3.67;;
37407;SDS011;24866;50.248;8.252;2022-11-12T05:55:17;7.47;;;4.05;;
37407;SDS011;24866;50.248;8.252;2022-11-12T05:57:47;6.35;;;4.28;;
37407;SDS011;24866;50.248;8.252;2022-11-12T06:00:17;6.68;;;3.80;;
37407;SDS011;24866;50.248;8.252;2022-11-12T06:02:47;4.97;;;3.00;;
37407;SDS011;24866;50.248;8.252;2022-11-12T06:05:17;7.72;;;3.58;;
37407;SDS011;24866;50.248;8.252;2022-11-12T06:07:47;8.18;;;3.95;;
37407;SDS011;24866;50.248;8.252;2022-11-12T06:10:18;9.05;;;3.60;;
37407;SDS011;24866;50.248;8.252;2022-11-12T06:12:48;5.57;;;3.75;;
37407;SDS011;24866;50.248;8.252;2022-11-12T06:15:19;11.38;;;4.13;;
37407;SDS011;24866;50.248;8.252;2022-11-12T06:17:49;7.63;;;4.30;;
37407;SDS011;24866;50.248;8.252;2022-11-12T06:20:19;6.10;;;3.88;;
37407;SDS011;24866;50.248;8.252;2022-11-12T06:22:49;7.30;;;4.20;;
37407;SDS011;24866;50.248;8.252;2022-11-12T06:25:21;6.57;;;3.28;;
37407;SDS011;24866;50.248;8.252;2022-11-12T06:27:51;7.37;;;4.00;;
37407;SDS011;24866;50.248;8.252;2022-11-12T06:30:21;7.85;;;3.92;;
37407;SDS011;24866;50.248;8.252;2022-11-12T06:32:51;7.57;;;3.78;;
37407;SDS011;24866;50.248;8.252;2022-11-12T06:35:21;7.03;;;4.15;;
37407;SDS011;24866;50.248;8.252;2022-11-12T06:37:51;7.40;;;3.60;;
37407;SDS011;24866;50.248;8.252;2022-11-12T06:40:23;9.10;;;4.28;;
37407;SDS011;24866;50.248;8.252;2022-11-12T06:42:56;8.27;;;4.18;;
37407;SDS011;24866;50.248;8.252;2022-11-12T06:45:27;9.02;;;3.90;;
37407;SDS011;24866;50.248;8.252;2022-11-12T06:47:57;8.35;;;3.97;;
37407;SDS011;24866;50.248;8.252;2022-11-12T06:50:27;11.45;;;4.68;;
37407;SDS011;24866;50.248;8.252;2022-11-12T06:52:57;7.15;;;4.10;;
37407;SDS011;24866;50.248;8.252;2022-11-12T06:55:28;6.03;;;3.72;;
37407;SDS011;24866;50.248;8.252;2022-11-12T06:57:58;8.65;;;3.85;;
37407;SDS011;24866;50.248;8.252;2022-11-12T07:00:28;7.85;;;3.63;;
37407;SDS011;24866;50.248;8.252;2022-11-12T07:02:58;5.68;;;3.33;;
37407;SDS011;24866;50.248;8.252;2022-11-12T07:05:28;6.13;;;3.55;;
37407;SDS011;24866;50.248;8.252;2022-11-12T07:07:58;5.97;;;3.40;;
37407;SDS011;24866;50.248;8.252;2022-11-12T07:10:29;5.88;;;3.03;;
37407;SDS011;24866;50.248;8.252;2022-11-12T07:12:59;5.85;;;3.50;;
37407;SDS011;24866;50.248;8.252;2022-11-12T07:15:29;7.18;;;3.97;;
37407;SDS011;24866;50.248;8.252;2022-11-12T07:17:59;8.15;;;3.92;;
37407;SDS011;24866;50.248;8.252;2022-11-12T07:20:29;13.60;;;4.07;;
37407;SDS011;24866;50.248;8.252;2022-11-12T07:22:59;12.80;;;4.63;;
37407;SDS011;24866;50.248;8.252;2022-11-12T07:25:30;7.30;;;3.88;;
37407;SDS011;24866;50.248;8.252;2022-11-12T07:28:00;7.30;;;4.20;;
37407;SDS011;24866;50.248;8.252;2022-11-12T07:30:30;8.02;;;4.40;;
37407;SDS011;24866;50.248;8.252;2022-11-12T07:33:00;8.63;;;4.38;;
37407;SDS011;24866;50.248;8.252;2022-11-12T07:35:30;5.95;;;3.75;;
37407;SDS011;24866;50.248;8.252;2022-11-12T07:38:00;7.72;;;4.35;;
37407;SDS011;24866;50.248;8.252;2022-11-12T07:40:32;10.25;;;5.03;;
37407;SDS011;24866;50.248;8.252;2022-11-12T07:43:02;9.65;;;4.55;;
37407;SDS011;24866;50.248;8.252;2022-11-12T07:45:33;10.00;;;5.13;;
37407;SDS011;24866;50.248;8.252;2022-11-12T07:48:03;9.45;;;5.13;;
37407;SDS011;24866;50.248;8.252;2022-11-12T07:50:34;8.45;;;4.57;;
37407;SDS011;24866;50.248;8.252;2022-11-12T07:53:04;10.25;;;4.72;;
37407;SDS011;24866;50.248;8.252;2022-11-12T07:55:35;12.18;;;5.10;;
37407;SDS011;24866;50.248;8.252;2022-11-12T07:58:05;6.55;;;4.13;;
37407;SDS011;24866;50.248;8.252;2022-11-12T08:00:35;9.65;;;5.03;;
37407;SDS011;24866;50.248;8.252;2022-11-12T08:03:05;10.10;;;5.25;;
37407;SDS011;24866;50.248;8.252;2022-11-12T08:05:35;7.72;;;4.22;;
37407;SDS011;24866;50.248;8.252;2022-11-12T08:08:05;6.97;;;3.90;;
37407;SDS011;24866;50.248;8.252;2022-11-12T08:10:36;6.68;;;4.07;;
37407;SDS011;24866;50.248;8.252;2022-11-12T08:13:06;7.43;;;4.10;;
37407;SDS011;24866;50.248;8.252;2022-11-12T08:15:36;7.97;;;4.43;;
37407;SDS011;24866;50.248;8.252;2022-11-12T08:18:06;9.20;;;4.80;;
37407;SDS011;24866;50.248;8.252;2022-11-12T08:20:36;9.20;;;4.40;;
37407;SDS011;24866;50.248;8.252;2022-11-12T08:23:06;8.40;;;4.13;;
37407;SDS011;24866;50.248;8.252;2022-11-12T08:25:38;6.82;;;3.15;;
37407;SDS011;24866;50.248;8.252;2022-11-12T08:28:08;6.85;;;3.30;;
37407;SDS011;24866;50.248;8.252;2022-11-12T08:30:38;6.45;;;3.72;;
37407;SDS011;24866;50.248;8.252;2022-11-12T08:33:08;7.13;;;3.33;;
37407;SDS011;24866;50.248;8.252;2022-11-12T08:35:38;11.60;;;4.28;;
37407;SDS011;24866;50.248;8.252;2022-11-12T08:38:08;7.93;;;3.60;;
37407;SDS011;24866;50.248;8.252;2022-11-12T08:40:41;7.27;;;4.03;;
37407;SDS011;24866;50.248;8.252;2022-11-12T08:43:12;9.60;;;4.32;;
37407;SDS011;24866;50.248;8.252;2022-11-12T08:45:41;8.02;;;4.20;;
37407;SDS011;24866;50.248;8.252;2022-11-12T08:48:13;8.20;;;4.28;;
37407;SDS011;24866;50.248;8.252;2022-11-12T08:50:43;6.60;;;4.40;;
37407;SDS011;24866;50.248;8.252;2022-11-12T08:53:13;7.63;;;4.68;;
37407;SDS011;24866;50.248;8.252;2022-11-12T08:55:45;7.90;;;4.75;;
37407;SDS011;24866;50.248;8.252;2022-11-12T08:58:15;7.25;;;4.32;;
37407;SDS011;24866;50.248;8.252;2022-11-12T09:00:45;7.53;;;4.40;;
37407;SDS011;24866;50.248;8.252;2022-11-12T09:03:15;9.27;;;4.68;;
37407;SDS011;24866;50.248;8.252;2022-11-12T09:05:47;9.35;;;4.88;;
37407;SDS011;24866;50.248;8.252;2022-11-12T09:08:18;6.57;;;4.25;;
37407;SDS011;24866;50.248;8.252;2022-11-12T09:10:51;9.38;;;4.85;;
37407;SDS011;24866;50.248;8.252;2022-11-12T09:13:21;9.93;;;5.93;;
37407;SDS011;24866;50.248;8.252;2022-11-12T09:15:52;23.85;;;8.68;;
37407;SDS011;24866;50.248;8.252;2022-11-12T09:18:22;15.98;;;7.82;;
37407;SDS011;24866;50.248;8.252;2022-11-12T09:20:52;9.38;;;5.25;;
37407;SDS011;24866;50.248;8.252;2022-11-12T09:23:22;11.43;;;5.55;;
37407;SDS011;24866;50.248;8.252;2022-11-12T09:25:54;12.30;;;6.88;;
37407;SDS011;24866;50.248;8.252;2022-11-12T09:28:25;19.48;;;7.57;;
37407;SDS011;24866;50.248;8.252;2022-11-12T09:30:55;13.35;;;8.30;;
37407;SDS011;24866;50.248;8.252;2022-11-12T09:33:26;11.60;;;7.10;;
37407;SDS011;24866;50.248;8.252;2022-11-12T09:36:00;17.73;;;7.93;;
37407;SDS011;24866;50.248;8.252;2022-11-12T09:38:30;10.55;;;7.00;;
37407;SDS011;24866;50.248;8.252;2022-11-12T09:41:08;13.52;;;6.88;;
37407;SDS011;24866;50.248;8.252;2022-11-12T09:43:49;12.20;;;7.00;;
37407;SDS011;24866;50.248;8.252;2022-11-12T09:46:28;16.05;;;7.93;;
37407;SDS011;24866;50.248;8.252;2022-11-12T09:49:05;17.45;;;7.72;;
37407;SDS011;24866;50.248;8.252;2022-11-12T09:51:41;11.73;;;6.90;;
37407;SDS011;24866;50.248;8.252;2022-11-12T09:54:18;11.13;;;6.20;;
37407;SDS011;24866;50.248;8.252;2022-11-12T09:56:53;10.43;;;5.78;;
37407;SDS011;24866;50.248;8.252;2022-11-12T09:59:25;7.10;;;4.60;;
37407;SDS011;24866;50.248;8.252;2022-11-12T10:01:59;8.32;;;5.22;;
37407;SDS011;24866;50.248;8.252;2022-11-12T10:07:47;6.57;;;4.07;;
37407;SDS011;24866;50.248;8.252;2022-11-12T10:10:28;6.70;;;4.30;;
37407;SDS011;24866;50.248;8.252;2022-11-12T10:13:12;7.45;;;4.93;;
37407;SDS011;24866;50.248;8.252;2022-11-12T10:15:56;7.03;;;4.80;;
37407;SDS011;24866;50.248;8.252;2022-11-12T10:18:57;6.82;;;4.75;;
37407;SDS011;24866;50.248;8.252;2022-11-12T10:21:41;7.28;;;4.95;;
37407;SDS011;24866;50.248;8.252;2022-11-12T10:24:18;8.70;;;5.05;;
37407;SDS011;24866;50.248;8.252;2022-11-12T10:26:51;9.43;;;5.43;;
37407;SDS011;24866;50.248;8.252;2022-11-12T10:29:27;12.15;;;6.07;;
37407;SDS011;24866;50.248;8.252;2022-11-12T10:32:01;10.70;;;5.90;;
37407;SDS011;24866;50.248;8.252;2022-11-12T10:34:31;7.60;;;4.75;;
37407;SDS011;24866;50.248;8.252;2022-11-12T10:37:04;6.40;;;4.47;;
37407;SDS011;24866;50.248;8.252;2022-11-12T10:39:36;8.15;;;5.05;;
37407;SDS011;24866;50.248;8.252;2022-11-12T10:42:07;7.15;;;4.95;;
37407;SDS011;24866;50.248;8.252;2022-11-12T10:44:40;7.22;;;5.32;;
37407;SDS011;24866;50.248;8.252;2022-11-12T10:47:24;7.32;;;4.88;;
37407;SDS011;24866;50.248;8.252;2022-11-12T10:50:01;7.57;;;5.40;;
37407;SDS011;24866;50.248;8.252;2022-11-12T10:52:52;7.10;;;5.38;;
37407;SDS011;24866;50.248;8.252;2022-11-12T10:55:27;8.25;;;5.10;;
37407;SDS011;24866;50.248;8.252;2022-11-12T10:58:05;9.18;;;6.75;;
37407;SDS011;24866;50.248;8.252;2022-11-12T11:03:43;9.30;;;6.20;;
37407;SDS011;24866;50.248;8.252;2022-11-12T11:06:18;7.90;;;5.65;;
37407;SDS011;24866;50.248;8.252;2022-11-12T11:08:52;7.78;;;5.47;;
37407;SDS011;24866;50.248;8.252;2022-11-12T11:11:36;9.02;;;6.15;;
37407;SDS011;24866;50.248;8.252;2022-11-12T11:14:24;8.73;;;6.25;;
37407;SDS011;24866;50.248;8.252;2022-11-12T11:16:58;9.85;;;7.40;;
37407;SDS011;24866;50.248;8.252;2022-11-12T11:19:32;9.63;;;7.10;;
37407;SDS011;24866;50.248;8.252;2022-11-12T11:22:09;8.70;;;6.10;;
37407;SDS011;24866;50.248;8.252;2022-11-12T11:24:59;7.85;;;5.65;;
37407;SDS011;24866;50.248;8.252;2022-11-12T11:27:39;7.70;;;5.25;;
37407;SDS011;24866;50.248;8.252;2022-11-12T11:30:16;8.32;;;5.57;;
37407;SDS011;24866;50.248;8.252;2022-11-12T11:33:12;6.85;;;5.10;;
37407;SDS011;24866;50.248;8.252;2022-11-12T11:35:52;7.80;;;5.63;;
37407;SDS011;24866;50.248;8.252;2022-11-12T11:38:33;9.80;;;5.72;;
37407;SDS011;24866;50.248;8.252;2022-11-12T11:41:21;8.70;;;5.63;;
37407;SDS011;24866;50.248;8.252;2022-11-12T11:44:04;7.00;;;4.97;;
37407;SDS011;24866;50.248;8.252;2022-11-12T11:49:33;6.78;;;5.18;;
37407;SDS011;24866;50.248;8.252;2022-11-12T11:52:40;7.13;;;4.85;;
37407;SDS011;24866;50.248;8.252;2022-11-12T11:55:17;8.88;;;6.20;;
37407;SDS011;24866;50.248;8.252;2022-11-12T11:57:59;9.30;;;6.38;;
37407;SDS011;24866;50.248;8.252;2022-11-12T12:00:44;7.78;;;5.28;;
37407;SDS011;24866;50.248;8.252;2022-11-12T12:03:19;8.57;;;6.13;;
37407;SDS011;24866;50.248;8.252;2022-11-12T12:05:58;8.35;;;6.20;;
37407;SDS011;24866;50.248;8.252;2022-11-12T12:08:41;8.90;;;6.32;;
37407;SDS011;24866;50.248;8.252;2022-11-12T12:11:22;10.63;;;7.50;;
37407;SDS011;24866;50.248;8.252;2022-11-12T12:14:02;9.18;;;6.68;;
37407;SDS011;24866;50.248;8.252;2022-11-12T12:16:47;10.45;;;7.30;;
37407;SDS011;24866;50.248;8.252;2022-11-12T12:19:28;9.82;;;6.43;;
37407;SDS011;24866;50.248;8.252;2022-11-12T12:22:20;11.10;;;6.95;;
37407;SDS011;24866;50.248;8.252;2022-11-12T12:24:59;10.73;;;8.25;;
37407;SDS011;24866;50.248;8.252;2022-11-12T12:27:37;9.23;;;6.97;;
37407;SDS011;24866;50.248;8.252;2022-11-12T12:30:17;9.48;;;7.28;;
37407;SDS011;24866;50.248;8.252;2022-11-12T12:32:52;11.90;;;7.28;;
37407;SDS011;24866;50.248;8.252;2022-11-12T12:35:28;9.40;;;7.10;;
37407;SDS011;24866;50.248;8.252;2022-11-12T12:38:16;11.05;;;8.15;;
37407;SDS011;24866;50.248;8.252;2022-11-12T12:40:55;11.20;;;8.57;;
37407;SDS011;24866;50.248;8.252;2022-11-12T12:43:34;8.73;;;7.10;;
37407;SDS011;24866;50.248;8.252;2022-11-12T12:46:09;10.13;;;7.78;;
37407;SDS011;24866;50.248;8.252;2022-11-12T12:48:42;9.10;;;6.70;;
37407;SDS011;24866;50.248;8.252;2022-11-12T12:51:15;9.30;;;6.80;;
37407;SDS011;24866;50.248;8.252;2022-11-12T12:53:47;8.98;;;6.88;;
37407;SDS011;24866;50.248;8.252;2022-11-12T12:59:20;9.35;;;7.82;;
37407;SDS011;24866;50.248;8.252;2022-11-12T13:01:56;9.70;;;6.63;;
37407;SDS011;24866;50.248;8.252;2022-11-12T13:07:37;9.07;;;6.60;;
37407;SDS011;24866;50.248;8.252;2022-11-12T13:10:43;10.05;;;6.97;;
37407;SDS011;24866;50.248;8.252;2022-11-12T13:13:30;8.52;;;6.35;;
37407;SDS011;24866;50.248;8.252;2022-11-12T13:16:02;8.68;;;6.65;;
37407;SDS011;24866;50.248;8.252;2022-11-12T13:21:29;14.38;;;10.48;;
37407;SDS011;24866;50.248;8.252;2022-11-12T13:23:59;10.43;;;8.25;;
37407;SDS011;24866;50.248;8.252;2022-11-12T13:26:42;9.68;;;6.35;;
37407;SDS011;24866;50.248;8.252;2022-11-12T13:29:21;9.95;;;6.78;;
37407;SDS011;24866;50.248;8.252;2022-11-12T13:37:48;8.93;;;5.85;;
37407;SDS011;24866;50.248;8.252;2022-11-12T13:40:24;8.45;;;6.30;;
37407;SDS011;24866;50.248;8.252;2022-11-12T13:43:14;10.30;;;8.07;;
37407;SDS011;24866;50.248;8.252;2022-11-12T13:45:50;9.23;;;7.28;;
37407;SDS011;24866;50.248;8.252;2022-11-12T13:48:23;9.63;;;7.22;;
37407;SDS011;24866;50.248;8.252;2022-11-12T13:50:57;9.63;;;6.50;;
37407;SDS011;24866;50.248;8.252;2022-11-12T13:53:31;8.65;;;6.80;;
37407;SDS011;24866;50.248;8.252;2022-11-12T13:56:01;8.77;;;7.03;;
37407;SDS011;24866;50.248;8.252;2022-11-12T13:58:34;7.85;;;6.20;;
37407;SDS011;24866;50.248;8.252;2022-11-12T14:01:06;9.10;;;6.97;;
37407;SDS011;24866;50.248;8.252;2022-11-12T14:03:41;9.85;;;6.57;;
37407;SDS011;24866;50.248;8.252;2022-11-12T14:06:14;8.32;;;6.70;;
37407;SDS011;24866;50.248;8.252;2022-11-12T14:08:52;9.02;;;6.60;;
37407;SDS011;24866;50.248;8.252;2022-11-12T14:11:37;11.85;;;6.90;;
37407;SDS011;24866;50.248;8.252;2022-11-12T14:14:21;8.48;;;6.43;;
37407;SDS011;24866;50.248;8.252;2022-11-12T14:17:01;9.77;;;7.82;;
37407;SDS011;24866;50.248;8.252;2022-11-12T14:19:54;8.77;;;6.40;;
37407;SDS011;24866;50.248;8.252;2022-11-12T14:22:41;10.48;;;7.90;;
37407;SDS011;24866;50.248;8.252;2022-11-12T14:25:13;10.07;;;7.55;;
37407;SDS011;24866;50.248;8.252;2022-11-12T14:27:47;10.70;;;8.15;;
37407;SDS011;24866;50.248;8.252;2022-11-12T14:30:21;11.45;;;8.70;;
37407;SDS011;24866;50.248;8.252;2022-11-12T14:32:56;8.98;;;6.88;;
37407;SDS011;24866;50.248;8.252;2022-11-12T14:35:32;10.75;;;7.90;;
37407;SDS011;24866;50.248;8.252;2022-11-12T14:38:14;10.02;;;7.38;;
37407;SDS011;24866;50.248;8.252;2022-11-12T14:40:48;9.38;;;7.47;;
37407;SDS011;24866;50.248;8.252;2022-11-12T14:43:22;10.02;;;7.53;;
37407;SDS011;24866;50.248;8.252;2022-11-12T14:45:56;9.23;;;6.20;;
37407;SDS011;24866;50.248;8.252;2022-11-12T14:48:28;11.00;;;8.48;;
37407;SDS011;24866;50.248;8.252;2022-11-12T14:51:03;9.60;;;6.97;;
37407;SDS011;24866;50.248;8.252;2022-11-12T14:53:39;10.45;;;7.82;;
37407;SDS011;24866;50.248;8.252;2022-11-12T14:56:15;12.75;;;7.90;;
37407;SDS011;24866;50.248;8.252;2022-11-12T14:58:52;13.32;;;8.60;;
37407;SDS011;24866;50.248;8.252;2022-11-12T15:01:26;11.43;;;7.82;;
37407;SDS011;24866;50.248;8.252;2022-11-12T15:06:50;12.20;;;8.18;;
37407;SDS011;24866;50.248;8.252;2022-11-12T15:09:31;10.70;;;7.50;;
37407;SDS011;24866;50.248;8.252;2022-11-12T15:12:04;12.30;;;8.00;;
37407;SDS011;24866;50.248;8.252;2022-11-12T15:14:35;10.30;;;7.90;;
37407;SDS011;24866;50.248;8.252;2022-11-12T15:17:17;11.00;;;8.27;;
37407;SDS011;24866;50.248;8.252;2022-11-12T15:20:00;12.00;;;8.05;;
37407;SDS011;24866;50.248;8.252;2022-11-12T15:22:33;11.13;;;8.13;;
37407;SDS011;24866;50.248;8.252;2022-11-12T15:25:17;12.18;;;8.20;;
37407;SDS011;24866;50.248;8.252;2022-11-12T15:27:49;12.20;;;8.05;;
37407;SDS011;24866;50.248;8.252;2022-11-12T15:30:21;13.25;;;8.32;;
37407;SDS011;24866;50.248;8.252;2022-11-12T15:33:06;12.52;;;8.32;;
37407;SDS011;24866;50.248;8.252;2022-11-12T15:35:37;11.50;;;8.05;;
37407;SDS011;24866;50.248;8.252;2022-11-12T15:38:12;13.18;;;8.07;;
37407;SDS011;24866;50.248;8.252;2022-11-12T15:40:46;11.35;;;8.10;;
37407;SDS011;24866;50.248;8.252;2022-11-12T15:43:22;16.92;;;8.40;;
37407;SDS011;24866;50.248;8.252;2022-11-12T15:45:54;12.63;;;8.07;;
37407;SDS011;24866;50.248;8.252;2022-11-12T15:48:26;17.65;;;9.60;;
37407;SDS011;24866;50.248;8.252;2022-11-12T15:50:56;13.65;;;8.75;;
37407;SDS011;24866;50.248;8.252;2022-11-12T15:53:27;11.93;;;8.32;;